sensor_id;sensor_type;location;lat;lon;timestamp;P1;durP1;ratioP1;P2;durP2;ratioP2
23376;SDS011;14353;46.070;13.222;2022-11-23T00:00:35;1.92;;;0.90;;
23376;SDS011;14353;46.070;13.222;2022-11-23T00:03:01;1.58;;;1.00;;
23376;SDS011;14353;46.070;13.222;2022-11-23T00:05:28;0.90;;;0.82;;
23376;SDS011;14353;46.070;13.222;2022-11-23T00:07:54;1.00;;;0.82;;
23376;SDS011;14353;46.070;13.222;2022-11-23T00:10:20;0.80;;;0.80;;
23376;SDS011;14353;46.070;13.222;2022-11-23T00:12:46;1.27;;;0.90;;
23376;SDS011;14353;46.070;13.222;2022-11-23T00:15:12;1.15;;;0.90;;
23376;SDS011;14353;46.070;13.222;2022-11-23T00:17:41;0.80;;;0.80;;
23376;SDS011;14353;46.070;13.222;2022-11-23T00:20:11;1.52;;;0.90;;
23376;SDS011;14353;46.070;13.222;2022-11-23T00:22:36;1.15;;;0.90;;
23376;SDS011;14353;46.070;13.222;2022-11-23T00:25:04;1.80;;;0.90;;
23376;SDS011;14353;46.070;13.222;2022-11-23T00:27:30;1.10;;;0.80;;
23376;SDS011;14353;46.070;13.222;2022-11-23T00:29:56;1.55;;;1.00;;
23376;SDS011;14353;46.070;13.222;2022-11-23T00:32:28;1.17;;;0.85;;
23376;SDS011;14353;46.070;13.222;2022-11-23T00:34:54;1.08;;;0.90;;
23376;SDS011;14353;46.070;13.222;2022-11-23T00:37:20;1.00;;;0.90;;
23376;SDS011;14353;46.070;13.222;2022-11-23T00:39:48;1.10;;;0.90;;
23376;SDS011;14353;46.070;13.222;2022-11-23T00:42:14;1.25;;;0.80;;
23376;SDS011;14353;46.070;13.222;2022-11-23T00:44:42;0.80;;;0.70;;
23376;SDS011;14353;46.070;13.222;2022-11-23T00:47:08;0.88;;;0.80;;
23376;SDS011;14353;46.070;13.222;2022-11-23T00:49:36;1.10;;;1.00;;
23376;SDS011;14353;46.070;13.222;2022-11-23T00:52:02;0.98;;;0.85;;
23376;SDS011;14353;46.070;13.222;2022-11-23T00:54:28;1.80;;;0.93;;
23376;SDS011;14353;46.070;13.222;2022-11-23T00:56:54;1.10;;;0.90;;
23376;SDS011;14353;46.070;13.222;2022-11-23T00:59:19;1.38;;;0.80;;
23376;SDS011;14353;46.070;13.222;2022-11-23T01:01:51;1.00;;;0.80;;
23376;SDS011;14353;46.070;13.222;2022-11-23T01:04:17;0.70;;;0.70;;
23376;SDS011;14353;46.070;13.222;2022-11-23T01:06:45;1.15;;;0.82;;
23376;SDS011;14353;46.070;13.222;2022-11-23T01:09:12;0.95;;;0.88;;
23376;SDS011;14353;46.070;13.222;2022-11-23T01:11:44;1.25;;;0.95;;
23376;SDS011;14353;46.070;13.222;2022-11-23T01:14:10;0.82;;;0.80;;
23376;SDS011;14353;46.070;13.222;2022-11-23T01:16:38;1.48;;;0.85;;
23376;SDS011;14353;46.070;13.222;2022-11-23T01:19:05;0.90;;;0.75;;
23376;SDS011;14353;46.070;13.222;2022-11-23T01:21:34;1.70;;;1.00;;
23376;SDS011;14353;46.070;13.222;2022-11-23T01:24:07;1.88;;;0.90;;
23376;SDS011;14353;46.070;13.222;2022-11-23T01:26:36;1.08;;;0.88;;
23376;SDS011;14353;46.070;13.222;2022-11-23T01:29:02;1.17;;;0.90;;
23376;SDS011;14353;46.070;13.222;2022-11-23T01:31:28;1.42;;;0.95;;
23376;SDS011;14353;46.070;13.222;2022-11-23T01:33:58;0.98;;;0.77;;
23376;SDS011;14353;46.070;13.222;2022-11-23T01:36:29;1.00;;;0.90;;
23376;SDS011;14353;46.070;13.222;2022-11-23T01:38:56;1.15;;;0.90;;
23376;SDS011;14353;46.070;13.222;2022-11-23T01:41:31;0.82;;;0.82;;
23376;SDS011;14353;46.070;13.222;2022-11-23T01:44:17;0.98;;;0.90;;
23376;SDS011;14353;46.070;13.222;2022-11-23T01:46:56;1.20;;;0.80;;
23376;SDS011;14353;46.070;13.222;2022-11-23T01:49:23;1.15;;;0.88;;
23376;SDS011;14353;46.070;13.222;2022-11-23T01:51:51;1.40;;;1.00;;
23376;SDS011;14353;46.070;13.222;2022-11-23T01:54:26;0.82;;;0.75;;
23376;SDS011;14353;46.070;13.222;2022-11-23T01:57:03;1.00;;;0.90;;
23376;SDS011;14353;46.070;13.222;2022-11-23T01:59:35;1.05;;;0.90;;
23376;SDS011;14353;46.070;13.222;2022-11-23T02:02:01;1.10;;;0.90;;
23376;SDS011;14353;46.070;13.222;2022-11-23T02:04:30;1.00;;;0.77;;
23376;SDS011;14353;46.070;13.222;2022-11-23T02:07:00;1.15;;;1.00;;
23376;SDS011;14353;46.070;13.222;2022-11-23T02:09:37;1.10;;;1.00;;
23376;SDS011;14353;46.070;13.222;2022-11-23T02:12:08;1.15;;;0.98;;
23376;SDS011;14353;46.070;13.222;2022-11-23T02:14:35;1.00;;;0.70;;
23376;SDS011;14353;46.070;13.222;2022-11-23T02:17:05;1.55;;;0.90;;
23376;SDS011;14353;46.070;13.222;2022-11-23T02:21:56;0.73;;;0.70;;
23376;SDS011;14353;46.070;13.222;2022-11-23T02:24:25;1.38;;;0.80;;
23376;SDS011;14353;46.070;13.222;2022-11-23T02:27:03;0.80;;;0.73;;
23376;SDS011;14353;46.070;13.222;2022-11-23T02:29:30;0.85;;;0.80;;
23376;SDS011;14353;46.070;13.222;2022-11-23T02:31:58;0.70;;;0.70;;
23376;SDS011;14353;46.070;13.222;2022-11-23T02:34:27;1.42;;;0.95;;
23376;SDS011;14353;46.070;13.222;2022-11-23T02:36:54;1.00;;;0.70;;
23376;SDS011;14353;46.070;13.222;2022-11-23T02:39:37;1.05;;;0.85;;
23376;SDS011;14353;46.070;13.222;2022-11-23T02:42:10;0.80;;;0.80;;
23376;SDS011;14353;46.070;13.222;2022-11-23T02:44:48;1.10;;;0.80;;
23376;SDS011;14353;46.070;13.222;2022-11-23T02:47:28;1.05;;;0.85;;
23376;SDS011;14353;46.070;13.222;2022-11-23T02:49:54;1.27;;;0.90;;
23376;SDS011;14353;46.070;13.222;2022-11-23T02:52:23;1.23;;;0.90;;
23376;SDS011;14353;46.070;13.222;2022-11-23T02:54:48;1.08;;;0.80;;
23376;SDS011;14353;46.070;13.222;2022-11-23T02:57:20;1.00;;;0.80;;
23376;SDS011;14353;46.070;13.222;2022-11-23T02:59:47;1.13;;;1.00;;
23376;SDS011;14353;46.070;13.222;2022-11-23T03:02:16;0.70;;;0.60;;
23376;SDS011;14353;46.070;13.222;2022-11-23T03:04:42;1.25;;;0.80;;
23376;SDS011;14353;46.070;13.222;2022-11-23T03:07:10;1.20;;;0.80;;
23376;SDS011;14353;46.070;13.222;2022-11-23T03:09:38;0.70;;;0.70;;
23376;SDS011;14353;46.070;13.222;2022-11-23T03:12:04;1.10;;;0.70;;
23376;SDS011;14353;46.070;13.222;2022-11-23T03:14:32;0.80;;;0.80;;
23376;SDS011;14353;46.070;13.222;2022-11-23T03:17:02;1.63;;;1.00;;
23376;SDS011;14353;46.070;13.222;2022-11-23T03:19:29;1.15;;;0.90;;
23376;SDS011;14353;46.070;13.222;2022-11-23T03:21:58;0.95;;;0.82;;
23376;SDS011;14353;46.070;13.222;2022-11-23T03:24:23;1.30;;;0.90;;
23376;SDS011;14353;46.070;13.222;2022-11-23T03:26:49;0.80;;;0.80;;
23376;SDS011;14353;46.070;13.222;2022-11-23T03:29:18;0.70;;;0.70;;
23376;SDS011;14353;46.070;13.222;2022-11-23T03:31:43;0.85;;;0.70;;
23376;SDS011;14353;46.070;13.222;2022-11-23T03:34:11;1.42;;;0.70;;
23376;SDS011;14353;46.070;13.222;2022-11-23T03:36:37;0.85;;;0.70;;
23376;SDS011;14353;46.070;13.222;2022-11-23T03:39:03;1.30;;;0.80;;
23376;SDS011;14353;46.070;13.222;2022-11-23T03:41:29;1.02;;;0.80;;
23376;SDS011;14353;46.070;13.222;2022-11-23T03:43:54;1.13;;;0.70;;
23376;SDS011;14353;46.070;13.222;2022-11-23T03:46:23;0.68;;;0.68;;
23376;SDS011;14353;46.070;13.222;2022-11-23T03:48:48;0.88;;;0.68;;
23376;SDS011;14353;46.070;13.222;2022-11-23T03:51:14;0.77;;;0.70;;
23376;SDS011;14353;46.070;13.222;2022-11-23T03:53:43;1.00;;;0.80;;
23376;SDS011;14353;46.070;13.222;2022-11-23T03:56:09;0.80;;;0.80;;
23376;SDS011;14353;46.070;13.222;2022-11-23T03:58:35;0.80;;;0.73;;
23376;SDS011;14353;46.070;13.222;2022-11-23T04:01:03;0.70;;;0.70;;
23376;SDS011;14353;46.070;13.222;2022-11-23T04:03:31;0.80;;;0.65;;
23376;SDS011;14353;46.070;13.222;2022-11-23T04:05:57;0.95;;;0.70;;
23376;SDS011;14353;46.070;13.222;2022-11-23T04:08:23;0.73;;;0.70;;
23376;SDS011;14353;46.070;13.222;2022-11-23T04:10:49;1.23;;;0.80;;
23376;SDS011;14353;46.070;13.222;2022-11-23T04:13:14;1.15;;;0.60;;
23376;SDS011;14353;46.070;13.222;2022-11-23T04:15:40;1.10;;;0.60;;
23376;SDS011;14353;46.070;13.222;2022-11-23T04:18:06;0.70;;;0.70;;
23376;SDS011;14353;46.070;13.222;2022-11-23T04:20:34;0.65;;;0.63;;
23376;SDS011;14353;46.070;13.222;2022-11-23T04:23:05;0.55;;;0.55;;
23376;SDS011;14353;46.070;13.222;2022-11-23T04:25:30;1.00;;;0.88;;
23376;SDS011;14353;46.070;13.222;2022-11-23T04:27:56;2.05;;;0.60;;
23376;SDS011;14353;46.070;13.222;2022-11-23T04:30:28;0.80;;;0.70;;
23376;SDS011;14353;46.070;13.222;2022-11-23T04:32:56;0.68;;;0.60;;
23376;SDS011;14353;46.070;13.222;2022-11-23T04:35:22;0.82;;;0.60;;
23376;SDS011;14353;46.070;13.222;2022-11-23T04:37:50;0.85;;;0.52;;
23376;SDS011;14353;46.070;13.222;2022-11-23T04:40:16;0.70;;;0.60;;
23376;SDS011;14353;46.070;13.222;2022-11-23T04:42:42;0.60;;;0.60;;
23376;SDS011;14353;46.070;13.222;2022-11-23T04:45:10;0.50;;;0.50;;
23376;SDS011;14353;46.070;13.222;2022-11-23T04:47:36;0.50;;;0.50;;
23376;SDS011;14353;46.070;13.222;2022-11-23T04:50:02;0.80;;;0.70;;
23376;SDS011;14353;46.070;13.222;2022-11-23T04:52:28;0.60;;;0.60;;
23376;SDS011;14353;46.070;13.222;2022-11-23T04:54:54;0.70;;;0.63;;
23376;SDS011;14353;46.070;13.222;2022-11-23T04:57:19;0.82;;;0.68;;
23376;SDS011;14353;46.070;13.222;2022-11-23T04:59:45;0.65;;;0.65;;
23376;SDS011;14353;46.070;13.222;2022-11-23T05:02:11;0.70;;;0.70;;
23376;SDS011;14353;46.070;13.222;2022-11-23T05:04:39;0.80;;;0.77;;
23376;SDS011;14353;46.070;13.222;2022-11-23T05:07:05;0.60;;;0.60;;
23376;SDS011;14353;46.070;13.222;2022-11-23T05:09:31;0.68;;;0.65;;
23376;SDS011;14353;46.070;13.222;2022-11-23T05:11:56;1.73;;;0.70;;
23376;SDS011;14353;46.070;13.222;2022-11-23T05:14:23;1.30;;;0.60;;
23376;SDS011;14353;46.070;13.222;2022-11-23T05:16:48;1.13;;;0.70;;
23376;SDS011;14353;46.070;13.222;2022-11-23T05:19:14;0.55;;;0.55;;
23376;SDS011;14353;46.070;13.222;2022-11-23T05:21:40;0.60;;;0.60;;
23376;SDS011;14353;46.070;13.222;2022-11-23T05:24:05;0.50;;;0.50;;
23376;SDS011;14353;46.070;13.222;2022-11-23T05:26:31;0.60;;;0.50;;
23376;SDS011;14353;46.070;13.222;2022-11-23T05:28:57;0.60;;;0.60;;
23376;SDS011;14353;46.070;13.222;2022-11-23T05:31:23;0.60;;;0.60;;
23376;SDS011;14353;46.070;13.222;2022-11-23T05:33:48;0.60;;;0.60;;
23376;SDS011;14353;46.070;13.222;2022-11-23T05:36:17;0.75;;;0.75;;
23376;SDS011;14353;46.070;13.222;2022-11-23T05:38:42;0.60;;;0.52;;
23376;SDS011;14353;46.070;13.222;2022-11-23T05:41:08;0.60;;;0.60;;
23376;SDS011;14353;46.070;13.222;2022-11-23T05:43:34;0.73;;;0.70;;
23376;SDS011;14353;46.070;13.222;2022-11-23T05:46:00;0.65;;;0.55;;
23376;SDS011;14353;46.070;13.222;2022-11-23T05:51:12;0.85;;;0.60;;
23376;SDS011;14353;46.070;13.222;2022-11-23T05:53:37;0.85;;;0.60;;
23376;SDS011;14353;46.070;13.222;2022-11-23T05:56:03;0.60;;;0.60;;
23376;SDS011;14353;46.070;13.222;2022-11-23T05:58:32;0.60;;;0.60;;
23376;SDS011;14353;46.070;13.222;2022-11-23T06:00:58;0.63;;;0.50;;
23376;SDS011;14353;46.070;13.222;2022-11-23T06:03:25;1.65;;;0.57;;
23376;SDS011;14353;46.070;13.222;2022-11-23T06:05:51;0.50;;;0.50;;
23376;SDS011;14353;46.070;13.222;2022-11-23T06:08:16;0.50;;;0.50;;
23376;SDS011;14353;46.070;13.222;2022-11-23T06:10:42;0.63;;;0.60;;
23376;SDS011;14353;46.070;13.222;2022-11-23T06:13:08;0.60;;;0.60;;
23376;SDS011;14353;46.070;13.222;2022-11-23T06:15:34;0.70;;;0.60;;
23376;SDS011;14353;46.070;13.222;2022-11-23T06:18:00;0.75;;;0.52;;
23376;SDS011;14353;46.070;13.222;2022-11-23T06:20:27;0.50;;;0.50;;
23376;SDS011;14353;46.070;13.222;2022-11-23T06:22:53;0.55;;;0.50;;
23376;SDS011;14353;46.070;13.222;2022-11-23T06:25:20;0.90;;;0.60;;
23376;SDS011;14353;46.070;13.222;2022-11-23T06:27:55;0.50;;;0.50;;
23376;SDS011;14353;46.070;13.222;2022-11-23T06:30:24;0.68;;;0.65;;
23376;SDS011;14353;46.070;13.222;2022-11-23T06:32:52;0.68;;;0.60;;
23376;SDS011;14353;46.070;13.222;2022-11-23T06:35:23;0.70;;;0.60;;
23376;SDS011;14353;46.070;13.222;2022-11-23T06:37:49;0.52;;;0.50;;
23376;SDS011;14353;46.070;13.222;2022-11-23T06:40:18;0.63;;;0.60;;
23376;SDS011;14353;46.070;13.222;2022-11-23T06:42:44;1.73;;;0.60;;
23376;SDS011;14353;46.070;13.222;2022-11-23T06:45:11;0.98;;;0.75;;
23376;SDS011;14353;46.070;13.222;2022-11-23T06:47:40;2.75;;;0.68;;
23376;SDS011;14353;46.070;13.222;2022-11-23T06:50:06;2.85;;;0.80;;
23376;SDS011;14353;46.070;13.222;2022-11-23T06:52:33;1.65;;;0.90;;
23376;SDS011;14353;46.070;13.222;2022-11-23T06:55:05;1.98;;;0.70;;
23376;SDS011;14353;46.070;13.222;2022-11-23T06:57:34;2.85;;;0.70;;
23376;SDS011;14353;46.070;13.222;2022-11-23T07:00:00;6.93;;;1.02;;
23376;SDS011;14353;46.070;13.222;2022-11-23T07:02:33;4.50;;;0.88;;
23376;SDS011;14353;46.070;13.222;2022-11-23T07:05:04;5.60;;;0.90;;
23376;SDS011;14353;46.070;13.222;2022-11-23T07:07:57;2.05;;;1.00;;
23376;SDS011;14353;46.070;13.222;2022-11-23T07:10:29;3.53;;;1.10;;
23376;SDS011;14353;46.070;13.222;2022-11-23T07:13:11;3.47;;;1.05;;
23376;SDS011;14353;46.070;13.222;2022-11-23T07:16:05;3.15;;;1.05;;
23376;SDS011;14353;46.070;13.222;2022-11-23T07:18:57;3.40;;;1.00;;
23376;SDS011;14353;46.070;13.222;2022-11-23T07:21:45;8.20;;;1.38;;
23376;SDS011;14353;46.070;13.222;2022-11-23T07:24:34;2.70;;;1.38;;
23376;SDS011;14353;46.070;13.222;2022-11-23T07:29:54;2.92;;;1.40;;
23376;SDS011;14353;46.070;13.222;2022-11-23T07:32:20;3.42;;;1.45;;
23376;SDS011;14353;46.070;13.222;2022-11-23T07:34:49;5.00;;;1.20;;
23376;SDS011;14353;46.070;13.222;2022-11-23T07:37:16;2.47;;;1.05;;
23376;SDS011;14353;46.070;13.222;2022-11-23T07:40:11;6.18;;;1.30;;
23376;SDS011;14353;46.070;13.222;2022-11-23T07:43:08;6.83;;;1.20;;
23376;SDS011;14353;46.070;13.222;2022-11-23T07:45:40;3.78;;;1.20;;
23376;SDS011;14353;46.070;13.222;2022-11-23T07:48:07;3.17;;;1.30;;
23376;SDS011;14353;46.070;13.222;2022-11-23T07:50:40;3.70;;;1.20;;
23376;SDS011;14353;46.070;13.222;2022-11-23T07:53:19;4.05;;;1.42;;
23376;SDS011;14353;46.070;13.222;2022-11-23T07:58:36;3.00;;;1.15;;
23376;SDS011;14353;46.070;13.222;2022-11-23T08:01:11;4.18;;;1.27;;
23376;SDS011;14353;46.070;13.222;2022-11-23T08:03:45;4.03;;;1.20;;
23376;SDS011;14353;46.070;13.222;2022-11-23T08:06:23;3.88;;;1.30;;
23376;SDS011;14353;46.070;13.222;2022-11-23T08:08:51;4.80;;;1.20;;
23376;SDS011;14353;46.070;13.222;2022-11-23T08:11:23;5.82;;;1.60;;
23376;SDS011;14353;46.070;13.222;2022-11-23T08:14:16;5.75;;;1.58;;
23376;SDS011;14353;46.070;13.222;2022-11-23T08:16:46;3.78;;;1.45;;
23376;SDS011;14353;46.070;13.222;2022-11-23T08:27:09;4.72;;;1.50;;
23376;SDS011;14353;46.070;13.222;2022-11-23T08:29:45;6.18;;;1.50;;
23376;SDS011;14353;46.070;13.222;2022-11-23T08:32:15;6.63;;;1.67;;
23376;SDS011;14353;46.070;13.222;2022-11-23T08:34:59;6.38;;;1.27;;
23376;SDS011;14353;46.070;13.222;2022-11-23T08:37:58;8.07;;;1.58;;
23376;SDS011;14353;46.070;13.222;2022-11-23T08:40:57;6.20;;;1.70;;
23376;SDS011;14353;46.070;13.222;2022-11-23T08:46:34;10.10;;;1.80;;
23376;SDS011;14353;46.070;13.222;2022-11-23T08:49:28;5.78;;;1.60;;
23376;SDS011;14353;46.070;13.222;2022-11-23T08:51:56;6.68;;;1.80;;
23376;SDS011;14353;46.070;13.222;2022-11-23T08:54:41;6.43;;;1.80;;
23376;SDS011;14353;46.070;13.222;2022-11-23T08:57:17;7.20;;;1.70;;
23376;SDS011;14353;46.070;13.222;2022-11-23T08:59:54;6.70;;;2.00;;
23376;SDS011;14353;46.070;13.222;2022-11-23T09:02:34;4.05;;;1.92;;
23376;SDS011;14353;46.070;13.222;2022-11-23T09:05:17;5.05;;;1.75;;
23376;SDS011;14353;46.070;13.222;2022-11-23T09:08:16;7.13;;;1.90;;
23376;SDS011;14353;46.070;13.222;2022-11-23T09:10:42;9.35;;;2.15;;
23376;SDS011;14353;46.070;13.222;2022-11-23T09:13:15;11.40;;;2.03;;
23376;SDS011;14353;46.070;13.222;2022-11-23T09:15:42;6.20;;;1.73;;
23376;SDS011;14353;46.070;13.222;2022-11-23T09:18:31;6.43;;;2.10;;
23376;SDS011;14353;46.070;13.222;2022-11-23T09:21:28;12.98;;;2.17;;
23376;SDS011;14353;46.070;13.222;2022-11-23T09:23:58;8.07;;;1.85;;
23376;SDS011;14353;46.070;13.222;2022-11-23T09:26:33;6.75;;;1.77;;
23376;SDS011;14353;46.070;13.222;2022-11-23T09:29:06;4.90;;;1.83;;
23376;SDS011;14353;46.070;13.222;2022-11-23T09:31:40;6.40;;;1.70;;
23376;SDS011;14353;46.070;13.222;2022-11-23T09:34:24;5.25;;;1.90;;
23376;SDS011;14353;46.070;13.222;2022-11-23T09:36:55;5.30;;;1.70;;
23376;SDS011;14353;46.070;13.222;2022-11-23T09:39:31;8.75;;;1.75;;
23376;SDS011;14353;46.070;13.222;2022-11-23T09:45:15;6.32;;;1.60;;
23376;SDS011;14353;46.070;13.222;2022-11-23T09:48:06;6.03;;;1.75;;
23376;SDS011;14353;46.070;13.222;2022-11-23T09:53:27;4.88;;;1.60;;
23376;SDS011;14353;46.070;13.222;2022-11-23T10:01:48;7.40;;;1.90;;
23376;SDS011;14353;46.070;13.222;2022-11-23T10:16:55;10.57;;;2.00;;
23376;SDS011;14353;46.070;13.222;2022-11-23T10:25:38;14.05;;;3.05;;
23376;SDS011;14353;46.070;13.222;2022-11-23T10:31:57;15.90;;;3.03;;
23376;SDS011;14353;46.070;13.222;2022-11-23T10:37:25;15.82;;;3.13;;
23376;SDS011;14353;46.070;13.222;2022-11-23T10:39:53;16.88;;;3.00;;
23376;SDS011;14353;46.070;13.222;2022-11-23T10:42:35;18.25;;;2.92;;
23376;SDS011;14353;46.070;13.222;2022-11-23T10:45:15;16.55;;;2.97;;
23376;SDS011;14353;46.070;13.222;2022-11-23T10:50:51;19.27;;;2.90;;
23376;SDS011;14353;46.070;13.222;2022-11-23T10:53:25;12.20;;;2.45;;
23376;SDS011;14353;46.070;13.222;2022-11-23T10:56:13;16.98;;;2.75;;
23376;SDS011;14353;46.070;13.222;2022-11-23T10:58:41;19.13;;;2.75;;
23376;SDS011;14353;46.070;13.222;2022-11-23T11:01:18;20.88;;;3.60;;
23376;SDS011;14353;46.070;13.222;2022-11-23T11:04:14;21.27;;;3.15;;
23376;SDS011;14353;46.070;13.222;2022-11-23T11:10:41;12.70;;;2.75;;
23376;SDS011;14353;46.070;13.222;2022-11-23T11:13:20;9.65;;;2.60;;
23376;SDS011;14353;46.070;13.222;2022-11-23T11:16:02;13.07;;;2.80;;
23376;SDS011;14353;46.070;13.222;2022-11-23T11:18:35;17.55;;;3.00;;
23376;SDS011;14353;46.070;13.222;2022-11-23T11:34:34;12.45;;;2.30;;
23376;SDS011;14353;46.070;13.222;2022-11-23T11:37:48;8.33;;;2.17;;
23376;SDS011;14353;46.070;13.222;2022-11-23T11:40:38;12.77;;;2.53;;
23376;SDS011;14353;46.070;13.222;2022-11-23T11:49:05;10.52;;;2.40;;
23376;SDS011;14353;46.070;13.222;2022-11-23T11:55:06;11.65;;;2.70;;
23376;SDS011;14353;46.070;13.222;2022-11-23T11:58:09;11.05;;;2.60;;
23376;SDS011;14353;46.070;13.222;2022-11-23T12:10:38;10.52;;;2.35;;
23376;SDS011;14353;46.070;13.222;2022-11-23T12:13:18;11.00;;;2.70;;
23376;SDS011;14353;46.070;13.222;2022-11-23T12:16:14;8.82;;;2.55;;
23376;SDS011;14353;46.070;13.222;2022-11-23T12:25:21;14.68;;;3.17;;
23376;SDS011;14353;46.070;13.222;2022-11-23T12:40:22;5.32;;;2.13;;
23376;SDS011;14353;46.070;13.222;2022-11-23T12:43:31;6.93;;;2.33;;
23376;SDS011;14353;46.070;13.222;2022-11-23T12:52:00;7.47;;;2.60;;
23376;SDS011;14353;46.070;13.222;2022-11-23T12:58:32;12.25;;;2.47;;
23376;SDS011;14353;46.070;13.222;2022-11-23T13:01:25;7.43;;;2.25;;
23376;SDS011;14353;46.070;13.222;2022-11-23T13:22:23;11.80;;;2.80;;
23376;SDS011;14353;46.070;13.222;2022-11-23T13:28:27;10.25;;;2.45;;
23376;SDS011;14353;46.070;13.222;2022-11-23T13:33:50;13.85;;;2.60;;
23376;SDS011;14353;46.070;13.222;2022-11-23T13:38:57;7.00;;;2.50;;
23376;SDS011;14353;46.070;13.222;2022-11-23T13:50:15;11.07;;;2.80;;
23376;SDS011;14353;46.070;13.222;2022-11-23T13:59:48;9.23;;;2.97;;
23376;SDS011;14353;46.070;13.222;2022-11-23T14:06:23;10.35;;;2.40;;
23376;SDS011;14353;46.070;13.222;2022-11-23T14:14:29;8.32;;;2.05;;
23376;SDS011;14353;46.070;13.222;2022-11-23T14:19:32;10.80;;;2.47;;
23376;SDS011;14353;46.070;13.222;2022-11-23T14:25:21;10.20;;;2.20;;
23376;SDS011;14353;46.070;13.222;2022-11-23T14:36:22;5.88;;;2.53;;
23376;SDS011;14353;46.070;13.222;2022-11-23T14:41:52;8.63;;;2.42;;
23376;SDS011;14353;46.070;13.222;2022-11-23T14:44:26;6.13;;;2.40;;
23376;SDS011;14353;46.070;13.222;2022-11-23T14:47:03;6.13;;;2.10;;
23376;SDS011;14353;46.070;13.222;2022-11-23T14:49:32;10.98;;;2.40;;
23376;SDS011;14353;46.070;13.222;2022-11-23T14:51:59;5.18;;;2.45;;
23376;SDS011;14353;46.070;13.222;2022-11-23T14:54:27;6.53;;;2.05;;
23376;SDS011;14353;46.070;13.222;2022-11-23T14:56:56;60.45;;;5.05;;
23376;SDS011;14353;46.070;13.222;2022-11-23T14:59:28;15.90;;;2.83;;
23376;SDS011;14353;46.070;13.222;2022-11-23T15:04:27;7.15;;;2.40;;
23376;SDS011;14353;46.070;13.222;2022-11-23T15:07:03;4.47;;;2.00;;
23376;SDS011;14353;46.070;13.222;2022-11-23T15:09:51;8.88;;;2.55;;
23376;SDS011;14353;46.070;13.222;2022-11-23T15:12:53;7.80;;;2.25;;
23376;SDS011;14353;46.070;13.222;2022-11-23T15:15:47;7.75;;;2.63;;
23376;SDS011;14353;46.070;13.222;2022-11-23T15:23:51;7.28;;;2.15;;
23376;SDS011;14353;46.070;13.222;2022-11-23T15:28:45;8.80;;;2.45;;
23376;SDS011;14353;46.070;13.222;2022-11-23T15:33:59;5.43;;;2.35;;
23376;SDS011;14353;46.070;13.222;2022-11-23T15:39:27;5.82;;;2.08;;
23376;SDS011;14353;46.070;13.222;2022-11-23T15:42:00;6.70;;;2.20;;
23376;SDS011;14353;46.070;13.222;2022-11-23T15:44:29;5.70;;;1.90;;
23376;SDS011;14353;46.070;13.222;2022-11-23T15:47:03;3.85;;;2.10;;
23376;SDS011;14353;46.070;13.222;2022-11-23T15:49:37;3.72;;;1.95;;
23376;SDS011;14353;46.070;13.222;2022-11-23T15:52:03;5.68;;;1.90;;
23376;SDS011;14353;46.070;13.222;2022-11-23T15:54:37;4.90;;;2.00;;
23376;SDS011;14353;46.070;13.222;2022-11-23T15:57:29;3.92;;;2.15;;
23376;SDS011;14353;46.070;13.222;2022-11-23T16:00:23;5.22;;;2.00;;
23376;SDS011;14353;46.070;13.222;2022-11-23T16:02:52;7.60;;;1.80;;
23376;SDS011;14353;46.070;13.222;2022-11-23T16:09:05;9.02;;;2.47;;
23376;SDS011;14353;46.070;13.222;2022-11-23T16:12:19;5.93;;;2.10;;
23376;SDS011;14353;46.070;13.222;2022-11-23T16:18:02;5.13;;;2.22;;
23376;SDS011;14353;46.070;13.222;2022-11-23T16:20:30;6.57;;;2.00;;
23376;SDS011;14353;46.070;13.222;2022-11-23T16:22:59;4.75;;;2.00;;
23376;SDS011;14353;46.070;13.222;2022-11-23T16:25:30;3.67;;;2.00;;
23376;SDS011;14353;46.070;13.222;2022-11-23T16:28:13;17.30;;;2.70;;
23376;SDS011;14353;46.070;13.222;2022-11-23T16:30:47;8.48;;;2.60;;
23376;SDS011;14353;46.070;13.222;2022-11-23T16:33:17;9.77;;;2.63;;
23376;SDS011;14353;46.070;13.222;2022-11-23T16:35:44;5.78;;;2.42;;
23376;SDS011;14353;46.070;13.222;2022-11-23T16:38:20;8.25;;;2.92;;
23376;SDS011;14353;46.070;13.222;2022-11-23T16:40:50;7.47;;;2.63;;
23376;SDS011;14353;46.070;13.222;2022-11-23T16:43:21;7.03;;;2.85;;
23376;SDS011;14353;46.070;13.222;2022-11-23T16:45:49;6.50;;;3.13;;
23376;SDS011;14353;46.070;13.222;2022-11-23T16:50:52;7.13;;;3.20;;
23376;SDS011;14353;46.070;13.222;2022-11-23T16:53:23;7.53;;;3.22;;
23376;SDS011;14353;46.070;13.222;2022-11-23T16:58:21;6.32;;;3.03;;
23376;SDS011;14353;46.070;13.222;2022-11-23T17:00:53;6.78;;;3.50;;
23376;SDS011;14353;46.070;13.222;2022-11-23T17:03:19;6.90;;;3.10;;
23376;SDS011;14353;46.070;13.222;2022-11-23T17:05:54;5.90;;;3.30;;
23376;SDS011;14353;46.070;13.222;2022-11-23T17:11:36;4.95;;;3.10;;
23376;SDS011;14353;46.070;13.222;2022-11-23T17:14:19;6.75;;;3.55;;
23376;SDS011;14353;46.070;13.222;2022-11-23T17:16:47;5.88;;;3.15;;
23376;SDS011;14353;46.070;13.222;2022-11-23T17:19:23;8.02;;;3.03;;
23376;SDS011;14353;46.070;13.222;2022-11-23T17:22:05;9.32;;;3.70;;
23376;SDS011;14353;46.070;13.222;2022-11-23T17:24:39;6.80;;;3.10;;
23376;SDS011;14353;46.070;13.222;2022-11-23T17:27:08;6.97;;;3.08;;
23376;SDS011;14353;46.070;13.222;2022-11-23T17:29:40;5.03;;;3.17;;
23376;SDS011;14353;46.070;13.222;2022-11-23T17:32:15;7.60;;;3.25;;
23376;SDS011;14353;46.070;13.222;2022-11-23T17:34:41;5.32;;;3.35;;
23376;SDS011;14353;46.070;13.222;2022-11-23T17:37:18;5.75;;;3.30;;
23376;SDS011;14353;46.070;13.222;2022-11-23T17:39:49;6.95;;;3.17;;
23376;SDS011;14353;46.070;13.222;2022-11-23T17:42:21;5.40;;;3.07;;
23376;SDS011;14353;46.070;13.222;2022-11-23T17:44:58;7.28;;;3.20;;
23376;SDS011;14353;46.070;13.222;2022-11-23T17:47:27;6.40;;;3.03;;
23376;SDS011;14353;46.070;13.222;2022-11-23T17:49:56;7.95;;;2.88;;
23376;SDS011;14353;46.070;13.222;2022-11-23T17:52:32;4.97;;;3.17;;
23376;SDS011;14353;46.070;13.222;2022-11-23T17:55:16;6.75;;;3.40;;
23376;SDS011;14353;46.070;13.222;2022-11-23T17:57:52;5.32;;;3.25;;
23376;SDS011;14353;46.070;13.222;2022-11-23T18:00:19;4.78;;;3.08;;
23376;SDS011;14353;46.070;13.222;2022-11-23T18:02:49;7.43;;;3.17;;
23376;SDS011;14353;46.070;13.222;2022-11-23T18:05:40;5.93;;;3.03;;
23376;SDS011;14353;46.070;13.222;2022-11-23T18:08:06;5.90;;;3.50;;
23376;SDS011;14353;46.070;13.222;2022-11-23T18:10:32;5.93;;;3.47;;
23376;SDS011;14353;46.070;13.222;2022-11-23T18:12:59;5.97;;;3.05;;
23376;SDS011;14353;46.070;13.222;2022-11-23T18:15:24;6.55;;;3.40;;
23376;SDS011;14353;46.070;13.222;2022-11-23T18:17:56;4.97;;;3.40;;
23376;SDS011;14353;46.070;13.222;2022-11-23T18:20:24;5.88;;;3.13;;
23376;SDS011;14353;46.070;13.222;2022-11-23T18:23:00;7.78;;;3.58;;
23376;SDS011;14353;46.070;13.222;2022-11-23T18:25:36;5.70;;;3.40;;
23376;SDS011;14353;46.070;13.222;2022-11-23T18:28:02;5.13;;;3.35;;
23376;SDS011;14353;46.070;13.222;2022-11-23T18:30:28;6.07;;;3.30;;
23376;SDS011;14353;46.070;13.222;2022-11-23T18:32:54;4.70;;;3.10;;
23376;SDS011;14353;46.070;13.222;2022-11-23T18:38:36;4.53;;;3.15;;
23376;SDS011;14353;46.070;13.222;2022-11-23T18:41:10;5.07;;;3.28;;
23376;SDS011;14353;46.070;13.222;2022-11-23T18:43:37;4.50;;;3.17;;
23376;SDS011;14353;46.070;13.222;2022-11-23T18:46:09;6.38;;;3.10;;
23376;SDS011;14353;46.070;13.222;2022-11-23T18:48:45;3.95;;;3.00;;
23376;SDS011;14353;46.070;13.222;2022-11-23T18:51:20;5.32;;;3.20;;
23376;SDS011;14353;46.070;13.222;2022-11-23T18:53:50;5.57;;;3.40;;